Flormar — EA4198 — position and weather

sailwx.info

Track history (hours):
 
Tides and Currents Weather Stations Pressure Air Temp Water Temp Dewpoint Dewpoint Depression Visibility Wind Speed Wind Dir Waves Ship Positions

Flormar

Last reported at 2017-Oct-23 11:23 UTC. Time now 2017-Nov-18 16:05 UTC.
Position N 39°15' E 002°54'.
Warning: this ship's position is 26 days out of date.

Length 23 m; draft 2.4 m.

Type: Other ship. MMSI: 224120850.

Date/timePositionNaut miles runAvg speedWind from/ knotsBaromVisibWave heightAir tempDewpointWater temp
2017-Oct-23 11:23N 39°15' E 002°54'3 8.4
2017-Oct-23 11:00N 39°16' E 002°50'3 6.3
2017-Oct-23 10:30N 39°18' E 002°47'3 6.3
2017-Oct-23 10:00N 39°20' E 002°43'3 6.0
2017-Oct-23 09:30N 39°22' E 002°41'3 6.3
2017-Oct-23 09:00N 39°25' E 002°40'3 6.4
2017-Oct-23 08:30N 39°28' E 002°39'4 7.5
2017-Oct-23 08:00N 39°32' E 002°39'2 3.7
2017-Oct-23 07:30N 39°34' E 002°38'0 0.0
2017-Oct-23 07:01N 39°34' E 002°38'0 0.0
2017-Oct-23 06:30N 39°34' E 002°38'0 0.0
2017-Oct-23 06:00N 39°34' E 002°38'0 0.0
2017-Oct-23 05:30N 39°34' E 002°38'0 0.0
2017-Oct-23 05:00N 39°34' E 002°38'0 0.0
2017-Oct-23 04:30N 39°34' E 002°38'0 0.0
2017-Oct-23 04:00N 39°34' E 002°38'0 0.0
2017-Oct-23 03:30N 39°34' E 002°38'0 0.0
2017-Oct-23 03:00N 39°34' E 002°38'0 0.0
2017-Oct-23 02:30N 39°34' E 002°38'0 0.0
2017-Oct-23 02:00N 39°34' E 002°38'0 0.0
2017-Oct-23 01:30N 39°34' E 002°38'0 0.0
2017-Oct-23 01:00N 39°34' E 002°38'0 0.0
2017-Oct-23 00:30N 39°34' E 002°38'0 0.0
2017-Oct-23 00:00N 39°34' E 002°38'0 0.0
2017-Oct-22 23:30N 39°34' E 002°38'0 0.0
2017-Oct-22 23:00N 39°34' E 002°38'0 0.0
2017-Oct-22 22:30N 39°34' E 002°38'0 0.0
2017-Oct-22 22:00N 39°34' E 002°38'0 0.0
2017-Oct-22 21:30N 39°34' E 002°38'0 0.0
2017-Oct-22 21:00N 39°34' E 002°38'0 0.0
2017-Oct-22 20:30N 39°34' E 002°38'0 0.0
2017-Oct-22 20:00N 39°34' E 002°38'0 0.0
2017-Oct-22 19:30N 39°34' E 002°38'0 0.0
2017-Oct-22 19:00N 39°34' E 002°38'0 0.0
2017-Oct-22 18:30N 39°34' E 002°38'0 0.0
2017-Oct-22 18:00N 39°34' E 002°38'0 0.0
2017-Oct-22 17:30N 39°34' E 002°38'0 0.7
2017-Oct-22 17:00N 39°34' E 002°38'3 5.4
2017-Oct-22 16:30N 39°31' E 002°37'4 8.4
2017-Oct-22 16:01N 39°28' E 002°34'4 8.0
2017-Oct-22 15:30N 39°26' E 002°29'4 7.8
2017-Oct-22 14:59N 39°25' E 002°24'3 0.1
2017-Oct-21 20:35N 39°26' E 002°27'0 4.6
2017-Oct-21 20:30N 39°26' E 002°27'5 0.5
2017-Oct-21 10:32N 39°22' E 002°25'0 4.7
2017-Oct-21 10:30N 39°22' E 002°25'3 5.2
2017-Oct-21 09:58N 39°20' E 002°28'3 5.3
2017-Oct-21 09:22N 39°17' E 002°30'3 6.0
2017-Oct-21 08:53N 39°15' E 002°31'3 4.3
2017-Oct-21 08:13N 39°12' E 002°33'1 4.1
2017-Oct-21 07:57N 39°11' E 002°34'7 0.8
2017-Oct-20 23:09N 39°18' E 002°31'0 2.3
2017-Oct-20 23:00N 39°18' E 002°31'1 2.4
2017-Oct-20 22:30N 39°18' E 002°32'3 4.6
2017-Oct-20 21:57N 39°20' E 002°35'1 2.8
2017-Oct-20 21:30N 39°21' E 002°35'1 2.5
2017-Oct-20 21:01N 39°22' E 002°35'1 1.4
2017-Oct-20 20:30N 39°21' E 002°35'2 4.3
2017-Oct-20 19:56N 39°20' E 002°32'1 2.5
2017-Oct-20 19:30N 39°20' E 002°31'3 4.5
2017-Oct-20 18:50N 39°23' E 002°30'1 1.9
2017-Oct-20 18:30N 39°24' E 002°30'2 4.4
2017-Oct-20 18:00N 39°22' E 002°31'2 4.3
2017-Oct-20 17:30N 39°20' E 002°32'2 4.1
2017-Oct-20 17:00N 39°18' E 002°33'4 0.9
2017-Oct-20 12:27N 39°14' E 002°36'0 0.1
2017-Oct-20 12:00N 39°14' E 002°36'58 8.0
2017-Oct-20 04:51N 38°50' E 001°29'96 2.4
2017-Oct-18 13:31N 38°04' W 000°20'8 9.5
2017-Oct-18 12:44N 37°58' W 000°24'2 9.3
2017-Oct-18 12:28N 37°56' W 000°26'11 9.2
2017-Oct-18 11:19N 37°46' W 000°32'3 9.0
2017-Oct-18 11:00N 37°44' W 000°34'4 8.8
2017-Oct-18 10:30N 37°40' W 000°37'4 8.9
2017-Oct-18 10:00N 37°36' W 000°40'5 9.0
2017-Oct-18 09:30N 37°33' W 000°44'4 8.7
2017-Oct-18 09:00N 37°30' W 000°48'4 8.1
2017-Oct-18 08:29N 37°27' W 000°52'  
Track history (hours):
 
Tides and Currents Weather Stations Pressure Air Temp Water Temp Dewpoint Dewpoint Depression Visibility Wind Speed Wind Dir Waves Ship Positions

Flormar

Last reported at 2017-Oct-23 11:23 UTC. Time now 2017-Nov-18 16:05 UTC.
Position N 39°15' E 002°54'.
Warning: this ship's position is 26 days out of date.

Length 23 m; draft 2.4 m.

Type: Other ship. MMSI: 224120850.

Date/timePositionNaut miles runAvg speedWind from/ knotsBaromVisibWave heightAir tempDewpointWater temp
2017-Oct-23 11:23N 39°15' E 002°54'3 8.4
2017-Oct-23 11:00N 39°16' E 002°50'3 6.3
2017-Oct-23 10:30N 39°18' E 002°47'3 6.3
2017-Oct-23 10:00N 39°20' E 002°43'3 6.0
2017-Oct-23 09:30N 39°22' E 002°41'3 6.3
2017-Oct-23 09:00N 39°25' E 002°40'3 6.4
2017-Oct-23 08:30N 39°28' E 002°39'4 7.5
2017-Oct-23 08:00N 39°32' E 002°39'2 3.7
2017-Oct-23 07:30N 39°34' E 002°38'0 0.0
2017-Oct-23 07:01N 39°34' E 002°38'0 0.0
2017-Oct-23 06:30N 39°34' E 002°38'0 0.0
2017-Oct-23 06:00N 39°34' E 002°38'0 0.0
2017-Oct-23 05:30N 39°34' E 002°38'0 0.0
2017-Oct-23 05:00N 39°34' E 002°38'0 0.0
2017-Oct-23 04:30N 39°34' E 002°38'0 0.0
2017-Oct-23 04:00N 39°34' E 002°38'0 0.0
2017-Oct-23 03:30N 39°34' E 002°38'0 0.0
2017-Oct-23 03:00N 39°34' E 002°38'0 0.0
2017-Oct-23 02:30N 39°34' E 002°38'0 0.0
2017-Oct-23 02:00N 39°34' E 002°38'0 0.0
2017-Oct-23 01:30N 39°34' E 002°38'0 0.0
2017-Oct-23 01:00N 39°34' E 002°38'0 0.0
2017-Oct-23 00:30N 39°34' E 002°38'0 0.0
2017-Oct-23 00:00N 39°34' E 002°38'0 0.0
2017-Oct-22 23:30N 39°34' E 002°38'0 0.0
2017-Oct-22 23:00N 39°34' E 002°38'0 0.0
2017-Oct-22 22:30N 39°34' E 002°38'0 0.0
2017-Oct-22 22:00N 39°34' E 002°38'0 0.0
2017-Oct-22 21:30N 39°34' E 002°38'0 0.0
2017-Oct-22 21:00N 39°34' E 002°38'0 0.0
2017-Oct-22 20:30N 39°34' E 002°38'0 0.0
2017-Oct-22 20:00N 39°34' E 002°38'0 0.0
2017-Oct-22 19:30N 39°34' E 002°38'0 0.0
2017-Oct-22 19:00N 39°34' E 002°38'0 0.0
2017-Oct-22 18:30N 39°34' E 002°38'0 0.0
2017-Oct-22 18:00N 39°34' E 002°38'0 0.0
2017-Oct-22 17:30N 39°34' E 002°38'0 0.7
2017-Oct-22 17:00N 39°34' E 002°38'3 5.4
2017-Oct-22 16:30N 39°31' E 002°37'4 8.4
2017-Oct-22 16:01N 39°28' E 002°34'4 8.0
2017-Oct-22 15:30N 39°26' E 002°29'4 7.8
2017-Oct-22 14:59N 39°25' E 002°24'3 0.1
2017-Oct-21 20:35N 39°26' E 002°27'0 4.6
2017-Oct-21 20:30N 39°26' E 002°27'5 0.5
2017-Oct-21 10:32N 39°22' E 002°25'0 4.7
2017-Oct-21 10:30N 39°22' E 002°25'3 5.2
2017-Oct-21 09:58N 39°20' E 002°28'3 5.3
2017-Oct-21 09:22N 39°17' E 002°30'3 6.0
2017-Oct-21 08:53N 39°15' E 002°31'3 4.3
2017-Oct-21 08:13N 39°12' E 002°33'1 4.1
2017-Oct-21 07:57N 39°11' E 002°34'7 0.8
2017-Oct-20 23:09N 39°18' E 002°31'0 2.3
2017-Oct-20 23:00N 39°18' E 002°31'1 2.4
2017-Oct-20 22:30N 39°18' E 002°32'3 4.6
2017-Oct-20 21:57N 39°20' E 002°35'1 2.8
2017-Oct-20 21:30N 39°21' E 002°35'1 2.5
2017-Oct-20 21:01N 39°22' E 002°35'1 1.4
2017-Oct-20 20:30N 39°21' E 002°35'2 4.3
2017-Oct-20 19:56N 39°20' E 002°32'1 2.5
2017-Oct-20 19:30N 39°20' E 002°31'3 4.5
2017-Oct-20 18:50N 39°23' E 002°30'1 1.9
2017-Oct-20 18:30N 39°24' E 002°30'2 4.4
2017-Oct-20 18:00N 39°22' E 002°31'2 4.3
2017-Oct-20 17:30N 39°20' E 002°32'2 4.1
2017-Oct-20 17:00N 39°18' E 002°33'4 0.9
2017-Oct-20 12:27N 39°14' E 002°36'0 0.1
2017-Oct-20 12:00N 39°14' E 002°36'58 8.0
2017-Oct-20 04:51N 38°50' E 001°29'96 2.4
2017-Oct-18 13:31N 38°04' W 000°20'8 9.5
2017-Oct-18 12:44N 37°58' W 000°24'2 9.3
2017-Oct-18 12:28N 37°56' W 000°26'11 9.2
2017-Oct-18 11:19N 37°46' W 000°32'3 9.0
2017-Oct-18 11:00N 37°44' W 000°34'4 8.8
2017-Oct-18 10:30N 37°40' W 000°37'4 8.9
2017-Oct-18 10:00N 37°36' W 000°40'5 9.0
2017-Oct-18 09:30N 37°33' W 000°44'4 8.7
2017-Oct-18 09:00N 37°30' W 000°48'4 8.1
2017-Oct-18 08:29N 37°27' W 000°52'  

Dump ship's entire track history